Ozan Unal

Scout - Alanyaspor
22 Feb 2028
Dienstag
Verarbeitung

Persönlichkeit

Anpassungsfähigkeit (16) Ehrgeiz (1) Kontroverse (3) Loyalität (13) Druck (14) Professionalität (10) Fairness (9) Temperament (2)

Profil

Trainerstil Demokratisch
Lizenz Nationale A
Entschlossenheit 12
Menschenführung 12
Motivation 10
Disziplin 13
Arbeitszufriedenheit
100%
Ermüdung
0%
Rolle Scout
Gehalt 58.7K p/W
Vertrag 14.03.2030

Leistung

Verhalten Gut
Trainingseffektivität
29%
Spielerentwicklung
60%
Verletzungsprävention
20%
Taktische Umsetzung
40%

Letzte Ereignisse

Nahm an einer Scouting-Besprechung teil jetzt
Empfahl ein Transferziel jetzt
Empfahl ein Transferziel jetzt
Empfahl ein Transferziel jetzt
Empfahl ein Transferziel 7T her
Empfahl ein Transferziel 7T her
Empfahl ein Transferziel 7T her
Nahm an einer Scouting-Besprechung teil 7T her

Aktuell beobachtet

136
Spieler Verein Status Fähigkeit Vertrauen Beobachtet Zuletzt beobachtet Letzte Stimme
Martin Cedidla Twente Verhandlung 131 / 132 66% 1 17.01.2028 Befürworten
Stefan Savić Trabzonspor Verloren 124 / 119 69% 1 17.01.2028 Befürworten
Giovanni Leoni Bradford City Aktiv 141 / 144 40% 1 12.01.2028 -
Archie Gray Derby County Aktiv 163 / 155 40% 1 12.01.2028 -
Esquerdinha Shrewsbury Town Aktiv 108 / 123 40% 1 12.01.2028 -
Pedro González Cerro Largo Aktiv 117 / 122 40% 1 04.01.2028 -
James Trafford Leeds United Aktiv 160 / 154 40% 1 04.01.2028 -
Nicolás Fernández Mercau Independiente Aktiv 134 / 134 90% 1 01.01.2028 Befürworten
Mao Hosoya Everton Verhandlung 134 / 135 90% 1 01.01.2028 Befürworten
Semih Kılıçsoy Besiktas Verloren 131 / 131 69% 1 01.01.2028 -
Christos Mouzakitis Hull City Aktiv 130 / 145 40% 4 31.12.2027 -
Ayden Heaven Luton Town Aktiv 156 / 155 40% 1 31.12.2027 -
David Damboama El-Kanemi Warriors Aktiv 74 / 96 40% 2 31.08.2027 -
Ismail Al Suwaidi Al Fujairah Aktiv 127 / 134 40% 1 31.08.2027 -
Adam Bakoune Ospitaletto Aktiv 95 / 108 40% 2 11.08.2027 -
David Valencia Alianza Petrolera Aktiv 131 / 123 40% 1 11.08.2027 -
Aune Heggebø West Bromwich Albion Aktiv 123 / 128 40% 1 05.07.2027 -
Bojan Radulović Huddersfield Town Aktiv 128 / 120 40% 1 05.07.2027 -
Petar Musa Adana Demirspor Aktiv 143 / 144 40% 1 05.07.2027 Mehr Infos nötig
Pedro de la Vega FC Dallas Verhandlung 133 / 134 66% 1 01.06.2027 Befürworten
Caleb Yirenkyi Coventry City Aktiv 126 / 146 40% 5 28.05.2027 -
Oscar Schwartau Norwich City Aktiv 116 / 134 40% 4 28.05.2027 -
Joel McGregor Swindon Town Aktiv 97 / 106 40% 3 28.05.2027 -
Riley Owen Trento Aktiv 113 / 108 40% 3 27.05.2027 -
Jesús Rodríguez Como Aktiv 138 / 154 40% 4 27.05.2027 -
Pietro Reggiori Pro Patria Aktiv 82 / 92 40% 2 27.05.2027 -
Leandro Martins Benfica Aktiv 83 / 97 40% 1 27.05.2027 -
Tiago Freitas Benfica Aktiv 102 / 117 40% 2 24.05.2027 -
Jan Bürger Gillingham Aktiv 110 / 114 40% 2 24.05.2027 -
Matías Gómez Granada Aktiv 120 / 119 40% 1 24.05.2027 -
Christ Inao Oulaï Fiorentina Aktiv 142 / 139 40% 5 22.05.2027 -
Daniel Vernattus Metalist Aktiv 98 / 100 40% 1 22.05.2027 -
Sascha Britschgi Padova Aktiv 128 / 130 40% 1 19.05.2027 -
Othmane Maamma Watford Aktiv 129 / 130 40% 10 18.05.2027 -
Hazeem Bakre Crawley Town Aktiv 92 / 81 40% 1 17.05.2027 -
Jayden Addai Como Aktiv 138 / 128 40% 4 16.05.2027 -
Calum Agius Crewe Alexandra Aktiv 84 / 102 40% 6 16.05.2027 -
Josh King Chelsea Aktiv 146 / 146 40% 2 16.05.2027 -
Jan Virgili Club Brugge Aktiv 134 / 133 40% 1 13.05.2027 -
Leo Castledine Middlesbrough Aktiv 124 / 137 40% 6 11.05.2027 -
Cyriaque Irié VfL Wolfsburg Aktiv 126 / 124 40% 3 10.05.2027 -
Matheus Gonçalves Al-Ahli Aktiv 135 / 121 40% 3 10.05.2027 -
Kazunari Kita Real Sociedad Aktiv 88 / 101 40% 1 08.05.2027 -
Martim Cunha Porto Aktiv 101 / 111 40% 1 05.05.2027 -
Shea Lacey Wolverhampton Aktiv 116 / 130 40% 2 02.05.2027 -
Ben Gannon Doak Bournemouth Aktiv 147 / 152 40% 1 02.05.2027 -
Ethan Williams Peterborough United Aktiv 108 / 116 40% 2 01.05.2027 -
Araphat Mohammed Berekum Chelsea Aktiv 105 / 102 40% 1 01.05.2027 -
Lynden Edhart Cambuur Aktiv 100 / 107 40% 2 30.04.2027 -
Jofre Torrents Ajax Aktiv 118 / 133 40% 4 29.04.2027 -
Davide Bartesaghi AC Milan Aktiv 121 / 133 40% 1 29.04.2027 -
Kutlwano Letlhaku Ajax Cape Town Aktiv 125 / 117 40% 4 25.04.2027 -
Mfundo Vilakazi Kaizer Chiefs Aktiv 127 / 122 40% 1 20.04.2027 -
André Miranda Porto Aktiv 112 / 115 40% 2 19.04.2027 -
David Ozoh Derby County Aktiv 113 / 131 40% 2 19.04.2027 -
Jayden Luker Barnet Aktiv 90 / 99 40% 2 09.04.2027 -
Rocco Vata Watford Aktiv 133 / 126 40% 1 01.04.2027 -
James Dornelly Peterborough United Aktiv 111 / 116 40% 3 31.03.2027 -
Daniel Awuni Aduana Stars Aktiv 100 / 100 40% 1 29.03.2027 -
Jon Eceizabarrena Real Sociedad Aktiv 98 / 105 40% 2 16.03.2027 -
Monty Batlhabane Polokwane City Aktiv 87 / 104 40% 1 16.03.2027 -
Callum Hudson-Odoi Nottingham Forest Aktiv 145 / 142 40% 3 30.12.2026 -
Adrien Truffert Bournemouth Aktiv 157 / 157 40% 4 30.12.2026 -
Sidny Lopes Cabral Trabzonspor Aktiv 134 / 138 40% 1 30.12.2026 -
André Wolverhampton Aktiv 130 / 151 40% 1 30.12.2026 -
Alagie Wally Veres Aktiv 88 / 92 40% 1 28.12.2026 -
Scott Twine Bristol City Aktiv 113 / 119 40% 1 26.12.2026 -
Jason Knight Bristol City Aktiv 132 / 128 40% 1 24.12.2026 -
Aral Şimşir Trabzonspor Aktiv 132 / 133 40% 3 23.12.2026 -
Richard Koné Queens Park Rangers Aktiv 134 / 121 40% 1 23.12.2026 Mehr Infos nötig
Williams Manyama SuperSport United Aktiv 108 / 119 40% 2 22.12.2026 -
Mandla Erasmus SuperSport United Aktiv 110 / 119 40% 3 21.12.2026 -
Lévy Néne FC Nordsjaelland Aktiv 116 / 121 40% 1 21.12.2026 -
Tom Fellows Southampton Aktiv 118 / 131 40% 2 20.12.2026 -
Marcelo Allende Mamelodi Sundowns Aktiv 142 / 136 40% 1 17.12.2026 -
Barış Alper Yılmaz Galatasaray Aktiv 153 / 150 40% 4 16.12.2026 Beobachten
Jonás Luna Santa Clara Aktiv 102 / 129 40% 2 16.12.2026 -
Juanlu Bournemouth Aktiv 155 / 140 40% 1 16.12.2026 -
Murillo Nottingham Forest Aktiv 163 / 151 40% 1 16.12.2026 -
Sorba Thomas Stoke City Aktiv 131 / 122 40% 1 13.12.2026 -
Mattéo Guendouzi Fenerbahce Aktiv 144 / 151 40% 5 12.12.2026 -
Finn Azaz Southampton Aktiv 144 / 127 40% 1 12.12.2026 -
Will Lankshear Middlesbrough Aktiv 120 / 125 40% 1 09.12.2026 -
Senny Mayulu Paris Saint-Germain Aktiv 143 / 154 40% 1 08.12.2026 -
Marquinhos Spartak Moscow Aktiv 124 / 128 40% 4 07.12.2026 -
Derensili Sanches Fernandes Huddersfield Town Aktiv 137 / 128 40% 1 06.12.2026 -
Endrick Real Madrid Aktiv 155 / 147 40% 2 05.12.2026 -
Carlos Vicente Birmingham Aktiv 152 / 131 40% 2 05.12.2026 -
Ahmed Kutucu Konyaspor Aktiv 114 / 127 40% 1 02.12.2026 -
Matt O'Riley Brighton Aktiv 150 / 141 40% 1 01.12.2026 -
Kevin Fulham Aktiv 150 / 152 40% 1 01.12.2026 -
Jack Rudoni Coventry City Aktiv 120 / 127 40% 1 01.12.2026 -
Iwan Morgan Grimsby Town Aktiv 116 / 109 40% 1 01.12.2026 -
Assane Diao Lazio Aktiv 143 / 155 40% 1 29.11.2026 -
Thomas Waddingham Portsmouth Aktiv 117 / 110 40% 1 29.11.2026 -
Josh Tymon Swansea City Aktiv 128 / 122 40% 1 28.11.2026 -
Florentino Luís Ipswich Town Aktiv 132 / 145 40% 1 28.11.2026 -
Nathan Collins Brentford Aktiv 149 / 154 40% 2 24.11.2026 -
Lewis Gibson Preston Aktiv 111 / 120 40% 1 24.11.2026 -
Aidan Morris Middlesbrough Aktiv 117 / 135 40% 1 24.11.2026 -
Toby Collyer West Bromwich Albion Aktiv 121 / 124 40% 1 23.11.2026 -
Kasey McAteer Ipswich Town Aktiv 128 / 122 40% 1 22.11.2026 -
Tyler Adams Bournemouth Aktiv 152 / 158 40% 1 21.11.2026 -
Drissa Camara Gaziantep Aktiv 129 / 131 40% 1 19.11.2026 -
Pelle Mattsson Norwich City Aktiv 116 / 133 40% 1 19.11.2026 -
Giacomo Raspadori Atalanta Aktiv 151 / 153 40% 1 19.11.2026 -
Dom Ballard Leyton Orient Aktiv 121 / 118 40% 1 17.11.2026 -
Oston O'runov Persepolis Aktiv 125 / 125 40% 3 15.11.2026 -
Esequiel Barco Spartak Moscow Aktiv 144 / 139 40% 1 13.11.2026 -
Oswin Appollis Orlando Pirates Aktiv 117 / 127 40% 1 11.11.2026 -
Tshepang Moremi Orlando Pirates Aktiv 105 / 112 40% 1 11.11.2026 -
Joaquín Gho Argentinos Juniors Aktiv 128 / 121 40% 1 07.11.2026 -
Tiago Palacios Estudiantes Aktiv 123 / 118 40% 2 05.11.2026 -
Reda Khadra Qarabag Aktiv 123 / 129 40% 1 05.11.2026 -
Mayckel Lahdo Malmo FF Aktiv 124 / 127 40% 2 04.11.2026 -
Abbosbek Fayzullayev Basaksehir Aktiv 137 / 123 40% 1 03.11.2026 -
Alan Lescano Argentinos Juniors Aktiv 132 / 131 40% 3 02.11.2026 -
Franco Zapiola Platense Aktiv 121 / 117 40% 1 02.11.2026 -
Suleiman Camara Slovan Bratislava Aktiv 126 / 121 40% 1 31.10.2026 -
Christian Krasnodar Aktiv 138 / 126 40% 1 31.10.2026 -
Santiago Montiel Independiente Aktiv 133 / 128 40% 1 31.10.2026 -
Batista Mendy Trabzonspor Aktiv 149 / 142 40% 3 28.10.2026 -
Matías Fernández Independiente Rivadavia Aktiv 125 / 120 40% 1 27.10.2026 -
Sebastián Medina Tigre Aktiv 116 / 118 40% 1 27.10.2026 -
Kerem Aktürkoğlu Fenerbahce Aktiv 132 / 139 40% 1 10.10.2026 -
Sayfallah Ltaief Cracovia Aktiv 120 / 119 40% 1 09.10.2026 -
Antony Portland Timbers Aktiv 121 / 139 40% 1 06.10.2026 -
Antonio Galeano Remo Stars Aktiv 113 / 133 40% 1 05.10.2026 -
Daniel Bassi Lillestrom Aktiv 126 / 130 40% 1 24.09.2026 -
Ahmad Lamido Wikki Tourists Aktiv 88 / 92 40% 1 20.09.2026 -
Amin Boudri Los Angeles Football Club Aktiv 126 / 117 40% 1 19.09.2026 -
Joel Medina Independiente Aktiv 117 / 129 40% 1 15.09.2026 -
Noel Buck San Jose Earthquakes Aktiv 115 / 125 40% 1 14.09.2026 -
Abdulrahman Hamisu Niger Tornadoes Aktiv 75 / 88 40% 1 12.09.2026 -
Luca Regiardo Newell's Old Boys Aktiv 101 / 99 40% 1 10.09.2026 -
Santino Gianoli Almirante Brown Aktiv 78 / 81 40% 1 02.08.2026 -